Time;durP1;ratioP1;P1;durP2;ratioP2;P2;SDS_P1;SDS_P2;PMS_P1;PMS_P2;Temp;Humidity;BMP_temperature;BMP_pressure;BME280_temperature;BME280_humidity;BME280_pressure;Samples;Min_cycle;Max_cycle;Signal;HPM_P1;HPM_P2
2022/12/14 00:01:36;;;;;;;28.65;14.13;;;;;;;-3.73;100.00;99378.59;4992082;28;20145;-70
2022/12/14 00:04:03;;;;;;;29.77;14.20;;;;;;;-3.67;100.00;99373.38;5002668;28;20478;-71
2022/12/14 00:06:31;;;;;;;28.58;14.93;;;;;;;-3.61;100.00;99375.91;4995912;28;20410;-71
2022/12/14 00:09:01;;;;;;;28.27;14.55;;;;;;;-3.58;100.00;99377.63;5001660;28;20073;-70
2022/12/14 00:11:27;;;;;;;27.77;13.32;;;;;;;-3.56;100.00;99378.47;4991117;28;20401;-69
2022/12/14 00:14:01;;;;;;;27.42;13.60;;;;;;;-3.57;100.00;99353.47;5006673;28;20037;-71
2022/12/14 00:16:30;;;;;;;27.92;14.02;;;;;;;-3.51;100.00;99348.25;5000426;28;20526;-70
2022/12/14 00:18:58;;;;;;;26.90;12.85;;;;;;;-3.44;100.00;99356.81;5001568;28;20054;-68
2022/12/14 00:21:26;;;;;;;20.70;12.27;;;;;;;-3.47;100.00;99349.13;4999505;28;20586;-70
2022/12/14 00:23:53;;;;;;;28.60;13.75;;;;;;;-3.62;100.00;99326.78;4998441;28;20074;-70
2022/12/14 00:26:21;;;;;;;28.10;13.05;;;;;;;-3.46;100.00;99350.81;4995526;28;20061;-70
2022/12/14 00:28:49;;;;;;;26.80;13.55;;;;;;;-3.49;100.00;99335.31;4990591;28;20045;-71
2022/12/14 00:31:16;;;;;;;27.70;13.50;;;;;;;-3.46;100.00;99340.47;4992998;28;20053;-70
2022/12/14 00:33:43;;;;;;;25.15;13.25;;;;;;;-3.47;100.00;99344.78;5000128;28;20454;-70
2022/12/14 00:36:11;;;;;;;25.90;12.95;;;;;;;-3.47;100.00;99338.75;5003220;28;20665;-70
2022/12/14 00:38:39;;;;;;;24.75;13.48;;;;;;;-3.48;100.00;99332.72;5000570;28;20136;-70
2022/12/14 00:41:06;;;;;;;25.08;13.25;;;;;;;-3.45;100.00;99332.66;4995911;28;20046;-71
2022/12/14 00:43:33;;;;;;;23.42;12.70;;;;;;;-3.47;100.00;99339.63;5003386;28;20042;-72
2022/12/14 00:46:00;;;;;;;30.23;13.77;;;;;;;-3.45;100.00;99331.81;5004161;28;20431;-70
2022/12/14 00:48:27;;;;;;;24.33;12.82;;;;;;;-3.43;100.00;99330.94;5001506;28;20061;-69
2022/12/14 00:50:55;;;;;;;25.52;13.02;;;;;;;-3.43;100.00;99333.53;4994425;28;20058;-69
2022/12/14 00:53:23;;;;;;;23.02;11.93;;;;;;;-3.43;100.00;99336.13;5000377;28;20449;-71
2022/12/14 00:55:49;;;;;;;24.00;11.93;;;;;;;-3.43;100.00;99320.59;5006968;28;20069;-69
2022/12/14 00:58:22;;;;;;;27.13;12.98;;;;;;;-3.36;100.00;99324.00;5003693;28;20057;-70
2022/12/14 01:01:04;;;;;;;23.92;12.02;;;;;;;-3.35;100.00;99318.81;4997302;28;20529;-70
2022/12/14 01:03:31;;;;;;;22.85;11.23;;;;;;;-3.38;100.00;99312.78;5006960;28;20073;-70
2022/12/14 01:05:59;;;;;;;21.83;12.27;;;;;;;-3.33;100.00;99321.38;5003342;28;20073;-68
2022/12/14 01:08:25;;;;;;;23.75;11.13;;;;;;;-3.36;100.00;99319.69;5009257;28;20054;-73
2022/12/14 01:10:52;;;;;;;21.65;12.05;;;;;;;-3.36;100.00;99322.25;4993213;28;20061;-71
2022/12/14 01:13:18;;;;;;;22.90;11.73;;;;;;;-3.34;100.00;99324.84;5002085;28;20061;-69
2022/12/14 01:15:45;;;;;;;23.45;11.13;;;;;;;-3.35;100.00;99312.78;5003458;28;21044;-71
2022/12/14 01:18:12;;;;;;;20.95;11.13;;;;;;;-3.31;100.00;99304.97;5004885;28;20054;-71
2022/12/14 01:20:41;;;;;;;24.40;12.00;;;;;;;-3.28;100.00;99294.56;4994057;28;20046;-71
2022/12/14 01:23:08;;;;;;;23.10;11.55;;;;;;;-3.30;100.00;99301.50;5005570;28;20041;-72
2022/12/14 01:25:34;;;;;;;22.35;11.73;;;;;;;-3.22;100.00;99307.47;4996903;28;20062;-70
2022/12/14 01:28:01;;;;;;;22.08;11.55;;;;;;;-3.25;100.00;99306.63;4999735;28;20061;-73
2022/12/14 01:30:27;;;;;;;20.95;11.70;;;;;;;-3.36;100.00;99280.84;4989636;28;20042;-70
2022/12/14 01:32:54;;;;;;;21.77;10.52;;;;;;;-3.38;100.00;99277.41;4996731;28;20046;-69
2022/12/14 01:35:21;;;;;;;22.35;12.15;;;;;;;-3.20;100.00;99310.91;4999603;28;20505;-70
2022/12/14 01:37:47;;;;;;;25.90;11.82;;;;;;;-3.24;100.00;99296.25;5006099;28;20463;-70
2022/12/14 01:40:15;;;;;;;20.27;11.35;;;;;;;-3.22;100.00;99298.84;4997748;28;20061;-70
2022/12/14 01:42:41;;;;;;;22.98;12.18;;;;;;;-3.21;100.00;99297.97;4995078;28;20053;-70
2022/12/14 01:45:18;;;;;;;23.58;11.57;;;;;;;-3.34;100.00;99271.34;5002216;28;20168;-70
2022/12/14 01:47:52;;;;;;;21.48;11.82;;;;;;;-3.25;100.00;99286.78;5002249;28;20073;-70
2022/12/14 01:50:38;;;;;;;23.17;11.75;;;;;;;-3.30;100.00;99274.75;4995951;28;20060;-70
2022/12/14 01:53:10;;;;;;;20.83;10.93;;;;;;;-3.30;100.00;99272.16;4999303;28;20141;-70
2022/12/14 01:55:41;;;;;;;21.30;11.27;;;;;;;-3.36;100.00;99260.16;5003245;28;20057;-71
2022/12/14 01:58:22;;;;;;;22.90;11.75;;;;;;;-3.35;100.00;99261.00;4998885;28;20057;-71
2022/12/14 02:00:53;;;;;;;22.33;11.85;;;;;;;-3.37;100.00;99258.44;4993117;28;20572;-72
2022/12/14 02:03:25;;;;;;;22.85;11.35;;;;;;;-3.53;100.00;99218.88;4997783;28;20049;-68
2022/12/14 02:05:58;;;;;;;23.15;12.02;;;;;;;-3.40;100.00;99237.75;4997875;28;20766;-71
2022/12/14 02:08:25;;;;;;;23.30;11.30;;;;;;;-3.36;100.00;99239.44;5003466;28;20136;-69
2022/12/14 02:10:56;;;;;;;21.85;11.45;;;;;;;-3.37;100.00;99231.69;4998638;28;20041;-69
2022/12/14 02:13:27;;;;;;;21.85;11.00;;;;;;;-3.35;100.00;99238.56;4991135;28;20042;-69
2022/12/14 02:15:54;;;;;;;21.17;11.63;;;;;;;-3.32;100.00;99235.97;5002747;28;20132;-71
2022/12/14 02:18:24;;;;;;;20.92;11.38;;;;;;;-3.35;100.00;99246.34;4999831;28;20513;-70
2022/12/14 02:21:15;;;;;;;20.38;11.13;;;;;;;-3.35;100.00;99235.13;4999431;28;20268;-71
2022/12/14 02:24:19;;;;;;;22.58;11.43;;;;;;;-3.35;100.00;99241.16;4999724;28;20430;-70
2022/12/14 02:27:06;;;;;;;24.50;11.25;;;;;;;-3.34;100.00;99229.06;4999926;28;20049;-71
2022/12/14 02:30:00;;;;;;;17.35;9.45;;;;;;;-3.34;100.00;99206.63;4992679;28;20141;-69
2022/12/14 02:32:44;;;;;;;19.08;9.40;;;;;;;-3.50;100.00;99173.16;5008896;28;20129;-69
2022/12/14 02:35:22;;;;;;;15.65;9.02;;;;;;;-3.31;100.00;99188.50;4997759;28;20060;-69
2022/12/14 02:38:18;;;;;;;20.58;9.68;;;;;;;-3.26;100.00;99194.44;5004773;28;20046;-69
2022/12/14 02:41:13;;;;;;;17.58;8.90;;;;;;;-3.26;100.00;99191.00;4994197;28;20561;-71
2022/12/14 02:44:27;;;;;;;16.58;9.65;;;;;;;-3.26;100.00;99199.63;5005191;28;20128;-71
2022/12/14 02:46:58;;;;;;;18.90;9.45;;;;;;;-3.27;100.00;99197.91;4981186;28;20498;-69
2022/12/14 02:49:50;;;;;;;21.17;9.80;;;;;;;-3.30;100.00;99192.75;5001668;28;20455;-69
2022/12/14 02:52:35;;;;;;;21.98;10.07;;;;;;;-3.46;100.00;99167.91;4994607;28;20129;-69
2022/12/14 02:55:08;;;;;;;20.73;10.02;;;;;;;-3.26;100.00;99202.22;5008337;28;20589;-69
2022/12/14 02:57:51;;;;;;;20.55;10.18;;;;;;;-3.37;100.00;99172.16;5001736;28;20049;-70
2022/12/14 03:00:18;;;;;;;19.27;9.45;;;;;;;-3.27;100.00;99179.78;5006495;28;20078;-70
2022/12/14 03:02:47;;;;;;;17.85;9.98;;;;;;;-3.38;100.00;99150.59;4993044;28;20354;-68
2022/12/14 03:05:14;;;;;;;20.38;10.00;;;;;;;-3.19;100.00;99170.22;5019963;28;20046;-71
2022/12/14 03:07:48;;;;;;;18.05;10.00;;;;;;;-3.19;100.00;99172.81;5005103;28;20042;-70
2022/12/14 03:10:41;;;;;;;19.27;9.80;;;;;;;-3.18;100.00;99173.66;4995533;28;20082;-71
2022/12/14 03:13:37;;;;;;;18.33;9.93;;;;;;;-3.17;100.00;99171.94;4997059;28;20041;-72
2022/12/14 03:16:12;;;;;;;17.88;9.20;;;;;;;-3.19;100.00;99164.19;5005346;28;20085;-70
2022/12/14 03:18:51;;;;;;;16.50;8.88;;;;;;;-3.21;100.00;99161.63;5005134;28;20049;-70
2022/12/14 03:21:23;;;;;;;17.27;8.90;;;;;;;-3.21;100.00;99153.00;4991026;28;20058;-71
2022/12/14 03:23:54;;;;;;;18.10;9.57;;;;;;;-3.25;100.00;99148.72;5003488;28;20050;-70
2022/12/14 03:26:28;;;;;;;18.75;9.75;;;;;;;-3.39;100.00;99123.00;5003677;28;20065;-71
2022/12/14 03:29:17;;;;;;;15.93;9.15;;;;;;;-3.22;100.00;99148.69;5007170;28;20053;-70
2022/12/14 03:31:52;;;;;;;17.17;8.30;;;;;;;-3.24;100.00;99143.53;4996468;28;20527;-71
2022/12/14 03:34:24;;;;;;;17.55;9.23;;;;;;;-3.17;100.00;99138.28;5005146;28;20092;-71
2022/12/14 03:37:23;;;;;;;15.88;8.55;;;;;;;-3.14;100.00;99130.44;5004548;28;20148;-71
2022/12/14 03:39:50;;;;;;;15.50;8.60;;;;;;;-3.15;100.00;99126.19;4993374;28;20053;-73
2022/12/14 03:42:24;;;;;;;16.35;8.73;;;;;;;-3.14;100.00;99123.53;4991840;28;20051;-70
2022/12/14 03:45:02;;;;;;;17.02;8.70;;;;;;;-3.10;100.00;99119.19;5004660;28;20056;-70
2022/12/14 03:47:43;;;;;;;15.57;8.10;;;;;;;-3.05;100.00;99114.81;5006704;28;20060;-70
2022/12/14 03:50:34;;;;;;;17.55;9.30;;;;;;;-3.08;100.00;99128.66;4997820;28;20047;-69
2022/12/14 03:53:10;;;;;;;14.30;8.27;;;;;;;-3.17;100.00;99117.56;4990889;28;20050;-69
2022/12/14 03:55:55;;;;;;;15.18;8.30;;;;;;;-3.21;100.00;99116.75;5005682;28;20046;-72
2022/12/14 03:58:47;;;;;;;18.17;9.43;;;;;;;-3.21;100.00;99109.84;5004330;28;20046;-72
2022/12/14 04:01:44;;;;;;;16.20;8.85;;;;;;;-3.20;100.00;99116.72;4996765;28;20057;-69
2022/12/14 04:04:21;;;;;;;19.98;8.55;;;;;;;-3.23;100.00;99121.09;4987537;28;20125;-70
2022/12/14 04:06:55;;;;;;;16.67;8.90;;;;;;;-3.25;100.00;99118.50;5001621;28;20060;-70
2022/12/14 04:09:29;;;;;;;16.00;8.88;;;;;;;-3.36;100.00;99091.91;4999985;28;20593;-71
2022/12/14 04:20:54;;;;;;;18.42;9.18;;;;;;;-3.19;100.00;99097.72;4991464;28;20062;-70
2022/12/14 04:26:18;;;;;;;15.82;8.40;;;;;;;-3.13;100.00;99101.09;5001792;28;20061;-71
2022/12/14 04:32:01;;;;;;;15.13;7.95;;;;;;;-3.05;100.00;99105.31;4998955;28;21165;-70
2022/12/14 04:34:32;;;;;;;13.93;7.88;;;;;;;-3.17;100.00;99081.31;4999246;28;20065;-71
2022/12/14 04:37:01;;;;;;;;;;;;;;;-3.04;100.00;99104.44;4997177;28;20415;-71
2022/12/14 04:39:45;;;;;;;18.65;8.15;;;;;;;-3.24;100.00;99068.44;5003282;28;19964;-71
2022/12/14 04:42:15;;;;;;;16.00;8.32;;;;;;;-3.02;100.00;99096.66;4993588;28;20050;-71
2022/12/14 04:44:48;;;;;;;17.92;8.25;;;;;;;-2.96;100.00;99096.56;5002431;28;20061;-72
2022/12/14 04:47:16;;;;;;;15.88;8.05;;;;;;;-2.91;100.00;99106.00;5003626;28;20050;-70
2022/12/14 04:49:59;;;;;;;14.80;8.05;;;;;;;-2.87;100.00;99097.31;4998073;28;20145;-70
2022/12/14 04:52:38;;;;;;;16.20;8.20;;;;;;;-2.88;100.00;99094.75;4990740;28;20132;-70
2022/12/14 04:55:23;;;;;;;15.60;8.45;;;;;;;-2.83;100.00;99104.13;4999795;28;20053;-71
2022/12/14 04:58:27;;;;;;;15.25;8.25;;;;;;;-2.80;100.00;99094.63;4990860;28;20473;-72
2022/12/14 05:01:09;;;;;;;15.50;8.18;;;;;;;-2.74;100.00;99097.13;4971645;28;20100;-71
2022/12/14 05:04:03;;;;;;;15.45;8.48;;;;;;;-2.77;100.00;99100.63;4997033;28;20050;-71
2022/12/14 05:06:54;;;;;;;14.20;8.07;;;;;;;-2.77;100.00;99108.38;4999483;28;20121;-71
2022/12/14 05:09:30;;;;;;;16.40;8.18;;;;;;;-2.81;100.00;99109.31;4999342;28;20107;-72
2022/12/14 05:12:22;;;;;;;14.65;7.80;;;;;;;-2.83;100.00;99101.53;4995020;28;20429;-72
2022/12/14 05:14:57;;;;;;;16.13;8.15;;;;;;;-2.94;100.00;99081.88;4999880;28;20081;-70
2022/12/14 05:17:24;;;;;;;14.77;8.07;;;;;;;-2.76;100.00;99106.66;4997224;28;20041;-71
2022/12/14 05:19:53;;;;;;;13.13;8.00;;;;;;;-2.78;100.00;99096.31;4991161;28;20042;-71
2022/12/14 05:22:19;;;;;;;15.90;7.55;;;;;;;-2.74;100.00;99091.94;4993218;28;20050;-69
2022/12/14 05:24:46;;;;;;;18.25;8.45;;;;;;;-2.76;100.00;99098.88;4999584;28;20038;-70
2022/12/14 05:27:12;;;;;;;14.32;8.10;;;;;;;-2.85;100.00;99081.75;4995440;28;20080;-70
2022/12/14 05:29:40;;;;;;;15.32;8.23;;;;;;;-2.74;100.00;99097.13;4999693;28;20049;-70
2022/12/14 05:32:09;;;;;;;15.68;8.27;;;;;;;-3.06;100.00;99035.41;4995880;28;20046;-70
2022/12/14 05:34:36;;;;;;;15.63;8.55;;;;;;;-2.75;100.00;99088.50;4994517;28;20441;-70
2022/12/14 05:37:02;;;;;;;13.40;7.72;;;;;;;-2.75;100.00;99078.13;4999074;28;20057;-70
2022/12/14 05:39:29;;;;;;;18.10;8.15;;;;;;;-2.88;100.00;99053.28;4996566;28;20049;-70
2022/12/14 05:41:56;;;;;;;15.43;8.02;;;;;;;-2.84;100.00;99076.56;4993593;28;20077;-72
2022/12/14 05:44:22;;;;;;;16.40;8.00;;;;;;;-2.69;100.00;99075.47;4994890;28;20132;-70
2022/12/14 05:46:49;;;;;;;14.70;7.95;;;;;;;-2.69;100.00;99072.88;4996384;28;20054;-70
2022/12/14 05:49:16;;;;;;;13.73;8.18;;;;;;;-2.68;100.00;99064.22;4997815;28;20042;-71
2022/12/14 05:51:42;;;;;;;15.73;7.95;;;;;;;-2.65;100.00;99060.72;4994798;28;20049;-71
2022/12/14 05:54:09;;;;;;;15.02;7.90;;;;;;;-2.63;100.00;99061.53;4995146;28;20049;-71
2022/12/14 05:56:35;;;;;;;14.30;8.52;;;;;;;-2.64;100.00;99052.91;4993202;28;20494;-70
2022/12/14 05:59:02;;;;;;;14.90;7.78;;;;;;;-2.60;100.00;99043.38;4994843;28;20056;-71
2022/12/14 06:01:29;;;;;;;19.98;8.77;;;;;;;-2.80;99.71;99007.41;5000566;28;20583;-69
2022/12/14 06:03:55;;;;;;;13.07;8.10;;;;;;;-2.59;99.84;99034.72;4994531;28;20042;-71
2022/12/14 06:06:22;;;;;;;19.25;8.75;;;;;;;-2.60;99.99;99026.09;5000269;28;20045;-71
2022/12/14 06:08:49;;;;;;;18.40;8.48;;;;;;;-2.59;100.00;99019.16;4998804;28;20566;-70
2022/12/14 06:11:18;;;;;;;15.20;8.00;;;;;;;-2.63;100.00;99013.16;4994570;28;20451;-71
2022/12/14 06:13:45;;;;;;;13.85;8.00;;;;;;;-2.57;100.00;99018.25;4992362;28;20491;-70
2022/12/14 06:16:21;;;;;;;17.02;8.55;;;;;;;-2.50;100.00;99011.22;5007860;28;20114;-71
2022/12/14 06:18:50;;;;;;;16.00;8.30;;;;;;;-2.51;99.77;99000.00;5005806;28;20069;-72
2022/12/14 06:21:20;;;;;;;16.33;8.50;;;;;;;-2.69;100.00;98978.75;5008720;28;20046;-71
2022/12/14 06:23:48;;;;;;;;;;;;;;;-2.47;100.00;99006.00;5002462;28;20050;-71
2022/12/14 06:26:15;;;;;;;13.98;8.00;;;;;;;-2.48;99.66;98994.78;5009512;28;20334;-71
2022/12/14 06:28:42;;;;;;;15.55;8.18;;;;;;;-2.80;99.20;98937.44;5006865;28;20534;-71
2022/12/14 06:31:15;;;;;;;15.57;7.85;;;;;;;-2.50;99.49;98993.94;5004813;28;20482;-70
2022/12/14 06:33:42;;;;;;;16.85;8.68;;;;;;;-2.49;99.51;98993.06;4999046;28;20076;-71
2022/12/14 06:36:23;;;;;;;15.07;8.73;;;;;;;-2.47;100.00;98982.66;5006591;28;20057;-70
2022/12/14 06:38:54;;;;;;;15.88;8.00;;;;;;;-2.45;99.41;98987.84;5006955;28;20045;-72
2022/12/14 06:41:22;;;;;;;16.48;8.93;;;;;;;-2.48;99.92;98984.41;5001036;28;20441;-72
2022/12/14 06:43:51;;;;;;;16.38;9.27;;;;;;;-2.51;100.00;98975.81;4999074;28;20053;-70
2022/12/14 06:46:20;;;;;;;16.80;8.38;;;;;;;-2.50;100.00;98972.34;5004207;28;20057;-69
2022/12/14 06:48:51;;;;;;;14.83;8.17;;;;;;;-2.49;100.00;98958.50;5008900;28;20648;-69
2022/12/14 06:51:19;;;;;;;14.95;8.25;;;;;;;-2.43;100.00;98960.16;5013064;28;20503;-70
2022/12/14 06:53:48;;;;;;;14.25;7.95;;;;;;;-2.57;99.90;98942.25;4998213;28;20057;-71
2022/12/14 06:56:18;;;;;;;11.35;6.68;;;;;;;-2.43;100.00;98962.75;5000046;28;20041;-69
2022/12/14 06:58:45;;;;;;;14.88;8.93;;;;;;;-2.38;100.00;98968.72;5003250;28;20076;-70
2022/12/14 07:01:18;;;;;;;16.27;8.82;;;;;;;-2.59;100.00;98918.97;5010134;28;20095;-72
2022/12/14 07:03:50;;;;;;;17.15;9.05;;;;;;;-2.34;100.00;98952.19;5001357;28;20054;-70
2022/12/14 07:06:16;;;;;;;16.45;8.90;;;;;;;-2.35;100.00;98943.56;5003753;28;20038;-69
2022/12/14 07:08:43;;;;;;;16.75;9.02;;;;;;;-2.29;100.00;98945.19;5019272;28;20545;-69
2022/12/14 07:11:12;;;;;;;15.40;8.77;;;;;;;-2.30;100.00;98944.34;5006522;28;20541;-70
2022/12/14 07:13:39;;;;;;;16.00;9.02;;;;;;;-2.47;100.00;98913.53;4997266;28;20559;-74
2022/12/14 07:16:09;;;;;;;17.63;9.27;;;;;;;-2.31;99.49;98928.81;5001954;28;20480;-70
2022/12/14 07:18:35;;;;;;;18.40;9.05;;;;;;;-2.23;99.21;98929.53;5007964;28;20058;-70
2022/12/14 07:21:10;;;;;;;14.23;8.88;;;;;;;-2.26;99.70;98921.81;5006152;28;20483;-69
2022/12/14 07:23:41;;;;;;;16.40;8.55;;;;;;;-2.23;100.00;98919.16;4998705;28;20386;-70
2022/12/14 07:26:10;;;;;;;;;;;;;;;-2.17;99.55;98921.63;4998858;28;20121;-70
2022/12/14 07:28:38;;;;;;;16.05;8.73;;;;;;;-2.18;99.53;98932.88;4994221;28;19921;-70
2022/12/14 07:31:06;;;;;;;16.83;9.25;;;;;;;-2.21;100.00;98922.59;5005529;28;20398;-71
2022/12/14 07:33:33;;;;;;;19.13;8.98;;;;;;;-2.21;99.76;98913.06;4991584;28;20466;-71
2022/12/14 07:36:04;;;;;;;17.38;8.77;;;;;;;-2.19;99.37;98923.38;5003300;28;20089;-71
2022/12/14 07:38:32;;;;;;;15.23;8.40;;;;;;;-2.21;99.61;98920.84;5007570;28;20081;-71
2022/12/14 07:41:08;;;;;;;17.83;8.90;;;;;;;-2.40;100.00;98882.34;5005268;28;20106;-72
2022/12/14 07:43:36;;;;;;;17.38;9.25;;;;;;;-2.19;100.00;98916.47;4995278;28;20054;-70
2022/12/14 07:46:09;;;;;;;16.67;9.27;;;;;;;-2.36;99.88;98887.41;4997348;28;20058;-70
2022/12/14 07:48:36;;;;;;;15.18;9.25;;;;;;;-2.09;99.53;98921.50;5006788;28;20057;-71
2022/12/14 07:51:08;;;;;;;18.02;8.95;;;;;;;-2.04;99.62;98925.69;5009291;28;20045;-70
2022/12/14 07:53:37;;;;;;;16.27;8.95;;;;;;;-2.06;99.09;98922.28;4992896;28;20491;-71
2022/12/14 07:56:15;;;;;;;17.80;9.40;;;;;;;-2.02;99.03;98918.72;4997237;28;20465;-71
2022/12/14 07:58:42;;;;;;;18.08;9.90;;;;;;;-1.92;98.53;98933.25;5003583;28;20050;-70
2022/12/14 08:01:16;;;;;;;16.77;9.18;;;;;;;-1.92;98.76;98943.63;5008509;28;20053;-73
2022/12/14 08:03:52;;;;;;;16.02;9.20;;;;;;;-1.99;98.63;98921.28;5002158;28;20108;-72
2022/12/14 08:06:21;;;;;;;18.00;9.32;;;;;;;-2.02;99.10;98929.09;5002645;28;20498;-71
2022/12/14 08:08:48;;;;;;;15.05;8.98;;;;;;;-1.90;98.27;98951.38;5002045;28;20057;-71
2022/12/14 08:11:16;;;;;;;17.35;8.98;;;;;;;-1.94;97.88;98954.91;4997882;28;20510;-71
2022/12/14 08:13:43;;;;;;;16.45;8.95;;;;;;;-1.89;98.23;98964.28;4990994;28;20069;-71
2022/12/14 08:16:13;;;;;;;14.70;8.65;;;;;;;-1.92;98.73;98972.16;5006313;28;20525;-71
2022/12/14 08:18:40;;;;;;;18.10;9.90;;;;;;;-1.94;99.58;98976.53;4998406;28;20470;-73
2022/12/14 08:21:08;;;;;;;16.38;9.60;;;;;;;-1.96;100.00;98969.66;5001543;28;20045;-73
2022/12/14 08:23:35;;;;;;;17.60;9.15;;;;;;;-1.96;100.00;98972.25;4989821;28;20077;-71
2022/12/14 08:26:05;;;;;;;96.15;38.95;;;;;;;-2.15;100.00;98948.38;5003017;28;20441;-71
2022/12/14 08:28:34;;;;;;;21.75;11.55;;;;;;;-2.02;100.00;98965.41;4997819;28;20097;-70
2022/12/14 08:31:12;;;;;;;18.08;10.52;;;;;;;-1.98;100.00;98959.28;4996063;28;20050;-73
2022/12/14 08:33:40;;;;;;;18.75;10.98;;;;;;;-1.98;100.00;98974.00;4989823;28;20042;-69
2022/12/14 08:36:13;;;;;;;16.38;9.73;;;;;;;-2.11;100.00;98968.19;4998145;28;20064;-69
2022/12/14 08:38:40;;;;;;;19.40;9.98;;;;;;;-2.09;100.00;98982.00;5003010;28;20053;-70
2022/12/14 08:41:10;;;;;;;18.83;10.52;;;;;;;-2.10;100.00;98990.66;4998416;28;20092;-70
2022/12/14 08:43:39;;;;;;;17.35;9.98;;;;;;;-2.04;100.00;98992.25;4989732;28;20518;-72
2022/12/14 08:46:08;;;;;;;18.20;9.95;;;;;;;-2.04;100.00;98995.72;5002147;28;20474;-70
2022/12/14 08:48:35;;;;;;;18.02;9.57;;;;;;;-2.17;100.00;98953.59;4998885;28;20054;-70
2022/12/14 08:51:03;;;;;;;16.98;9.95;;;;;;;-1.91;100.00;98973.88;4999678;28;20049;-71
2022/12/14 08:53:30;;;;;;;17.92;10.00;;;;;;;-1.85;100.00;98976.31;4992169;28;20046;-69
2022/12/14 08:55:58;;;;;;;19.52;10.65;;;;;;;-1.91;100.00;98955.72;4996870;28;20124;-70
2022/12/14 08:58:26;;;;;;;18.60;10.38;;;;;;;-1.94;100.00;98958.34;5001354;28;20074;-73
2022/12/14 09:01:08;;;;;;;17.70;10.52;;;;;;;-1.96;100.00;98962.72;5002798;28;21026;-71
2022/12/14 09:03:35;;;;;;;22.98;11.43;;;;;;;-2.00;100.00;98955.88;4985108;28;20070;-73
2022/12/14 09:06:04;;;;;;;21.02;11.48;;;;;;;-2.03;100.00;98960.25;4996644;28;20038;-70
2022/12/14 09:08:31;;;;;;;19.08;11.27;;;;;;;-2.00;100.00;98960.22;5003293;28;20137;-69
2022/12/14 09:10:59;;;;;;;21.00;11.95;;;;;;;-2.12;100.00;98935.38;4995902;28;20041;-69
2022/12/14 09:13:26;;;;;;;20.52;11.30;;;;;;;-1.92;100.00;98946.22;4997853;28;20232;-72
2022/12/14 09:15:58;;;;;;;22.77;12.52;;;;;;;-1.79;100.00;98950.28;4982256;28;20050;-73
2022/12/14 09:18:25;;;;;;;23.02;12.30;;;;;;;-1.80;100.00;98961.53;4995678;28;20050;-72
2022/12/14 09:20:54;;;;;;;22.52;11.57;;;;;;;-2.02;100.00;98942.06;4994307;28;20361;-71
2022/12/14 09:23:23;;;;;;;21.42;12.32;;;;;;;-1.83;100.00;98966.78;4989070;28;20506;-70
2022/12/14 09:25:59;;;;;;;22.55;11.75;;;;;;;-1.77;100.00;98966.66;4991144;28;20038;-70
2022/12/14 09:28:26;;;;;;;20.58;11.30;;;;;;;-1.86;100.00;98964.25;4989882;28;20785;-71
2022/12/14 09:30:58;;;;;;;19.48;11.43;;;;;;;-1.90;100.00;98972.13;4995545;28;20482;-71
2022/12/14 09:33:26;;;;;;;22.50;12.20;;;;;;;-1.84;100.00;98991.00;4993523;28;20042;-71
2022/12/14 09:35:59;;;;;;;19.58;10.95;;;;;;;-2.08;100.00;98926.66;4992074;28;22074;-70
2022/12/14 09:38:26;;;;;;;21.73;11.63;;;;;;;-1.86;100.00;98979.81;4994348;28;20134;-70
2022/12/14 09:40:56;;;;;;;20.15;11.07;;;;;;;-1.91;100.00;98973.00;4993359;28;20466;-69
2022/12/14 09:43:35;;;;;;;21.92;10.80;;;;;;;-1.98;100.00;98969.66;4996793;28;20140;-74
2022/12/14 09:46:29;;;;;;;22.33;11.40;;;;;;;-2.06;100.00;98968.97;4993205;28;20042;-70
2022/12/14 09:48:56;;;;;;;19.83;10.20;;;;;;;-2.02;100.00;98957.63;4992157;28;20113;-72
2022/12/14 09:51:34;;;;;;;24.15;11.60;;;;;;;-1.96;100.00;98954.94;4997655;28;20049;-71
2022/12/14 09:54:08;;;;;;;21.85;11.68;;;;;;;-1.95;100.00;98948.00;4989324;28;20059;-74
2022/12/14 09:56:36;;;;;;;19.70;11.25;;;;;;;-1.93;100.00;98952.28;4989534;28;20041;-73
2022/12/14 09:59:04;;;;;;;20.90;10.73;;;;;;;-1.89;100.00;98943.53;4994599;28;20142;-71
2022/12/14 10:01:49;;;;;;;23.63;12.07;;;;;;;-1.88;100.00;98934.88;4998787;28;20060;-73
2022/12/14 10:05:01;;;;;;;21.58;11.10;;;;;;;-1.86;100.00;98950.41;4985660;28;20569;-70
2022/12/14 10:08:00;;;;;;;22.08;10.38;;;;;;;-1.82;100.00;98952.91;4994155;28;20407;-74
2022/12/14 10:10:50;;;;;;;23.73;12.00;;;;;;;-1.76;100.00;98946.75;4995950;28;20080;-71
2022/12/14 10:13:41;;;;;;;21.00;11.55;;;;;;;-1.84;100.00;98914.91;4992496;28;20079;-71
2022/12/14 10:16:19;;;;;;;;;;;;;;;-1.63;100.00;98932.63;4999054;28;20057;-74
2022/12/14 10:19:20;;;;;;;20.70;11.07;;;;;;;-1.58;100.00;98936.00;4997745;28;19936;-72
2022/12/14 10:21:53;;;;;;;18.42;11.05;;;;;;;-1.51;100.00;98929.78;4993376;28;20062;-71
2022/12/14 10:24:29;;;;;;;18.58;10.45;;;;;;;-1.61;100.00;98927.41;4985439;28;20069;-72
2022/12/14 10:26:56;;;;;;;23.08;10.95;;;;;;;-1.72;100.00;98925.03;4999326;28;20406;-71
2022/12/14 10:29:39;;;;;;;21.70;11.48;;;;;;;-1.78;100.00;98931.22;5004792;28;20084;-71
2022/12/14 10:32:24;;;;;;;19.73;11.07;;;;;;;-1.88;100.00;98932.28;4998565;28;20046;-72
2022/12/14 10:34:51;;;;;;;19.05;11.30;;;;;;;-2.08;100.00;98905.91;4987057;28;20045;-72
2022/12/14 10:37:33;;;;;;;21.92;12.05;;;;;;;-1.87;100.00;98925.34;4989929;28;20148;-71
2022/12/14 10:40:22;;;;;;;20.85;12.07;;;;;;;-1.86;100.00;98930.50;4997860;28;20070;-73
2022/12/14 10:43:09;;;;;;;21.10;10.80;;;;;;;-1.82;100.00;98919.19;4981242;28;20042;-71
2022/12/14 10:45:45;;;;;;;19.45;10.80;;;;;;;-1.81;100.00;98909.66;4984142;28;20057;-70
2022/12/14 10:48:20;;;;;;;18.45;11.00;;;;;;;-1.79;100.00;98908.75;4995881;28;20046;-72
2022/12/14 10:51:01;;;;;;;24.40;12.13;;;;;;;-1.68;100.00;98907.66;4999518;28;20093;-71
2022/12/14 10:53:37;;;;;;;23.75;11.73;;;;;;;-1.58;100.00;98906.59;4985913;28;20046;-73
2022/12/14 10:56:13;;;;;;;19.70;11.93;;;;;;;-1.58;100.00;98904.00;4994557;28;20052;-69
2022/12/14 10:58:40;;;;;;;20.73;11.98;;;;;;;-1.61;100.00;98911.84;4989777;28;20058;-74
2022/12/14 11:01:12;;;;;;;20.10;11.45;;;;;;;-1.57;100.00;98918.66;5000184;28;20533;-71
2022/12/14 11:03:40;;;;;;;21.27;11.98;;;;;;;-1.50;100.00;98912.47;4995732;28;20058;-74
2022/12/14 11:06:17;;;;;;;20.58;11.75;;;;;;;-1.49;100.00;98906.38;4998892;28;20058;-72
2022/12/14 11:08:46;;;;;;;27.40;13.43;;;;;;;-1.47;100.00;98902.88;5001070;28;20046;-71
2022/12/14 11:11:25;;;;;;;21.33;11.50;;;;;;;-1.53;100.00;98886.56;5003786;28;20490;-72
2022/12/14 11:14:05;;;;;;;22.40;11.55;;;;;;;-1.55;100.00;98878.81;4992133;28;20068;-74
2022/12/14 11:16:36;;;;;;;21.73;11.70;;;;;;;-1.42;100.00;98900.19;4993122;28;20042;-69
2022/12/14 11:19:13;;;;;;;20.30;11.02;;;;;;;-1.66;100.00;98879.94;5001302;28;20061;-73
2022/12/14 11:21:40;;;;;;;21.55;11.98;;;;;;;-1.56;100.00;98910.84;5003765;28;20048;-69
2022/12/14 11:24:20;;;;;;;19.70;11.25;;;;;;;-1.63;100.00;98900.63;4997533;28;20043;-71
2022/12/14 11:26:48;;;;;;;22.08;12.23;;;;;;;-1.58;100.00;98902.25;4994815;28;20421;-73
2022/12/14 11:29:36;;;;;;;23.88;12.18;;;;;;;-1.67;100.00;98886.00;4998075;28;20050;-72
2022/12/14 11:32:05;;;;;;;21.30;11.75;;;;;;;-1.63;100.00;98898.91;5009587;28;20494;-69
2022/12/14 11:34:41;;;;;;;23.15;11.65;;;;;;;-1.64;100.00;98891.16;4998606;28;20046;-72
2022/12/14 11:37:21;;;;;;;21.55;11.50;;;;;;;-1.61;100.00;98897.13;4999981;28;20097;-71
2022/12/14 11:39:52;;;;;;;19.83;12.18;;;;;;;-1.60;100.00;98893.66;4997632;28;20084;-72
2022/12/14 11:42:19;;;;;;;20.73;11.88;;;;;;;-1.62;100.00;98887.63;4996542;28;20046;-73
2022/12/14 11:44:48;;;;;;;21.52;12.63;;;;;;;-1.56;100.00;98899.59;4999666;28;20137;-70
2022/12/14 11:47:18;;;;;;;22.45;12.32;;;;;;;-1.65;100.00;98884.25;5002044;28;20068;-71
2022/12/14 11:49:48;;;;;;;26.23;12.00;;;;;;;-1.65;100.00;98871.25;4994187;28;20085;-73
2022/12/14 11:52:20;;;;;;;24.45;12.60;;;;;;;-1.52;100.00;98881.34;5008254;28;20112;-71
2022/12/14 11:55:08;;;;;;;20.33;11.65;;;;;;;-1.46;100.00;98882.94;4990802;28;20053;-71
2022/12/14 11:57:57;;;;;;;21.55;11.50;;;;;;;-1.51;100.00;98885.63;4993448;28;20237;-71